sensor_id;sensor_type;location;lat;lon;timestamp;pressure;altitude;pressure_sealevel;temperature;humidity
37710;BME280;60223;34.854;-92.408;2023-04-04T00:02:05;99446.52;;;22.96;38.56
37710;BME280;60223;34.854;-92.408;2023-04-04T00:04:29;99444.20;;;22.80;38.26
37710;BME280;60223;34.854;-92.408;2023-04-04T00:06:56;99441.90;;;22.85;38.70
37710;BME280;60223;34.854;-92.408;2023-04-04T00:09:21;99447.18;;;23.20;38.36
37710;BME280;60223;34.854;-92.408;2023-04-04T00:11:46;99446.47;;;22.95;38.50
37710;BME280;60223;34.854;-92.408;2023-04-04T00:14:12;99446.57;;;22.93;38.66
37710;BME280;60223;34.854;-92.408;2023-04-04T00:16:38;99444.82;;;22.69;38.71
37710;BME280;60223;34.854;-92.408;2023-04-04T00:19:03;99448.09;;;23.21;38.49
37710;BME280;60223;34.854;-92.408;2023-04-04T00:21:28;99446.11;;;22.61;38.87
37710;BME280;60223;34.854;-92.408;2023-04-04T00:23:53;99448.78;;;23.33;38.62
37710;BME280;60223;34.854;-92.408;2023-04-04T00:26:18;99446.88;;;23.17;38.48
37710;BME280;60223;34.854;-92.408;2023-04-04T00:28:44;99450.48;;;22.97;38.93
37710;BME280;60223;34.854;-92.408;2023-04-04T00:31:09;99452.16;;;23.11;38.66
37710;BME280;60223;34.854;-92.408;2023-04-04T00:33:34;99456.79;;;23.15;38.58
37710;BME280;60223;34.854;-92.408;2023-04-04T00:36:00;99454.68;;;23.19;38.74
37710;BME280;60223;34.854;-92.408;2023-04-04T00:38:23;99454.66;;;23.13;38.90
37710;BME280;60223;34.854;-92.408;2023-04-04T00:40:52;99455.02;;;22.56;39.02
37710;BME280;60223;34.854;-92.408;2023-04-04T00:43:17;99452.22;;;23.05;39.04
37710;BME280;60223;34.854;-92.408;2023-04-04T00:45:42;99455.05;;;22.95;39.21
37710;BME280;60223;34.854;-92.408;2023-04-04T00:48:07;99455.50;;;23.10;38.94
37710;BME280;60223;34.854;-92.408;2023-04-04T00:50:33;99456.67;;;22.78;39.13
37710;BME280;60223;34.854;-92.408;2023-04-04T00:52:58;99454.76;;;22.77;39.07
37710;BME280;60223;34.854;-92.408;2023-04-04T00:55:23;99453.85;;;23.07;39.00
37710;BME280;60223;34.854;-92.408;2023-04-04T00:57:50;99454.31;;;22.98;39.16
37710;BME280;60223;34.854;-92.408;2023-04-04T01:00:16;99455.83;;;22.95;39.20
37710;BME280;60223;34.854;-92.408;2023-04-04T01:05:07;99452.93;;;22.74;39.10
37710;BME280;60223;34.854;-92.408;2023-04-04T01:07:32;99451.58;;;23.01;39.03
37710;BME280;60223;34.854;-92.408;2023-04-04T01:09:59;99452.44;;;22.96;39.09
37710;BME280;60223;34.854;-92.408;2023-04-04T01:12:23;99457.44;;;23.01;39.00
37710;BME280;60223;34.854;-92.408;2023-04-04T01:14:48;99458.95;;;22.99;39.03
37710;BME280;60223;34.854;-92.408;2023-04-04T01:17:14;99462.23;;;22.75;39.04
37710;BME280;60223;34.854;-92.408;2023-04-04T01:19:43;99458.73;;;23.07;38.85
37710;BME280;60223;34.854;-92.408;2023-04-04T01:22:05;99460.87;;;22.99;38.97
37710;BME280;60223;34.854;-92.408;2023-04-04T01:24:32;99462.65;;;22.47;38.94
37710;BME280;60223;34.854;-92.408;2023-04-04T01:26:56;99464.21;;;22.74;38.96
37710;BME280;60223;34.854;-92.408;2023-04-04T01:29:21;99463.03;;;22.51;38.94
37710;BME280;60223;34.854;-92.408;2023-04-04T01:31:52;99466.13;;;23.18;38.65
37710;BME280;60223;34.854;-92.408;2023-04-04T01:34:15;99463.66;;;22.74;38.92
37710;BME280;60223;34.854;-92.408;2023-04-04T01:36:44;99463.15;;;22.69;39.04
37710;BME280;60223;34.854;-92.408;2023-04-04T01:39:09;99468.22;;;23.24;38.71
37710;BME280;60223;34.854;-92.408;2023-04-04T01:41:28;99468.95;;;23.20;38.82
37710;BME280;60223;34.854;-92.408;2023-04-04T01:43:54;99467.70;;;22.88;38.91
37710;BME280;60223;34.854;-92.408;2023-04-04T01:46:19;99470.82;;;22.62;39.03
37710;BME280;60223;34.854;-92.408;2023-04-04T01:48:44;99472.46;;;22.81;39.14
37710;BME280;60223;34.854;-92.408;2023-04-04T01:51:08;99472.75;;;22.63;39.09
37710;BME280;60223;34.854;-92.408;2023-04-04T01:53:36;99473.60;;;22.87;39.25
37710;BME280;60223;34.854;-92.408;2023-04-04T01:56:01;99471.00;;;22.78;39.52
37710;BME280;60223;34.854;-92.408;2023-04-04T01:58:27;99473.74;;;22.79;39.52
37710;BME280;60223;34.854;-92.408;2023-04-04T02:00:52;99475.73;;;22.84;39.46
37710;BME280;60223;34.854;-92.408;2023-04-04T02:03:15;99481.48;;;23.04;39.54
37710;BME280;60223;34.854;-92.408;2023-04-04T02:05:43;99485.87;;;22.78;39.59
37710;BME280;60223;34.854;-92.408;2023-04-04T02:08:09;99485.93;;;22.81;39.56
37710;BME280;60223;34.854;-92.408;2023-04-04T02:10:34;99491.56;;;22.51;39.67
37710;BME280;60223;34.854;-92.408;2023-04-04T02:12:59;99492.34;;;23.03;39.59
37710;BME280;60223;34.854;-92.408;2023-04-04T02:15:25;99490.78;;;22.59;39.53
37710;BME280;60223;34.854;-92.408;2023-04-04T02:17:50;99490.39;;;22.52;39.63
37710;BME280;60223;34.854;-92.408;2023-04-04T02:20:16;99493.99;;;22.62;39.46
37710;BME280;60223;34.854;-92.408;2023-04-04T02:22:41;99497.44;;;22.58;39.47
37710;BME280;60223;34.854;-92.408;2023-04-04T02:25:07;99501.68;;;23.07;39.43
37710;BME280;60223;34.854;-92.408;2023-04-04T02:27:32;99506.13;;;22.80;39.51
37710;BME280;60223;34.854;-92.408;2023-04-04T02:29:57;99507.33;;;23.07;39.42
37710;BME280;60223;34.854;-92.408;2023-04-04T02:32:22;99510.44;;;23.08;39.38
37710;BME280;60223;34.854;-92.408;2023-04-04T02:34:48;99517.87;;;22.78;39.47
37710;BME280;60223;34.854;-92.408;2023-04-04T02:37:14;99522.31;;;23.09;39.35
37710;BME280;60223;34.854;-92.408;2023-04-04T02:39:38;99525.79;;;22.64;39.31
37710;BME280;60223;34.854;-92.408;2023-04-04T02:42:04;99534.17;;;22.58;39.34
37710;BME280;60223;34.854;-92.408;2023-04-04T02:44:30;99535.04;;;22.83;39.32
37710;BME280;60223;34.854;-92.408;2023-04-04T02:46:55;99536.80;;;23.09;39.26
37710;BME280;60223;34.854;-92.408;2023-04-04T02:49:21;99531.61;;;22.64;39.22
37710;BME280;60223;34.854;-92.408;2023-04-04T02:51:46;99532.14;;;22.82;39.29
37710;BME280;60223;34.854;-92.408;2023-04-04T02:54:12;99530.16;;;22.88;39.16
37710;BME280;60223;34.854;-92.408;2023-04-04T02:56:37;99530.79;;;22.57;39.27
37710;BME280;60223;34.854;-92.408;2023-04-04T02:59:00;99536.45;;;22.61;39.20
37710;BME280;60223;34.854;-92.408;2023-04-04T03:01:27;99540.07;;;22.86;39.19
37710;BME280;60223;34.854;-92.408;2023-04-04T03:03:53;99546.41;;;22.64;39.14
37710;BME280;60223;34.854;-92.408;2023-04-04T03:06:19;99544.80;;;22.86;39.12
37710;BME280;60223;34.854;-92.408;2023-04-04T03:08:44;99547.06;;;22.61;39.14
37710;BME280;60223;34.854;-92.408;2023-04-04T03:11:09;99539.84;;;22.85;39.12
37710;BME280;60223;34.854;-92.408;2023-04-04T03:13:34;99536.15;;;22.85;39.14
37710;BME280;60223;34.854;-92.408;2023-04-04T03:16:00;99545.68;;;22.92;39.07
37710;BME280;60223;34.854;-92.408;2023-04-04T03:18:26;99550.33;;;22.76;38.98
37710;BME280;60223;34.854;-92.408;2023-04-04T03:20:51;99549.24;;;22.76;39.02
37710;BME280;60223;34.854;-92.408;2023-04-04T03:23:16;99548.32;;;22.81;39.23
37710;BME280;60223;34.854;-92.408;2023-04-04T03:25:41;99540.90;;;22.84;39.16
37710;BME280;60223;34.854;-92.408;2023-04-04T03:28:11;99549.53;;;22.66;39.07
37710;BME280;60223;34.854;-92.408;2023-04-04T03:30:31;99550.58;;;23.11;39.10
37710;BME280;60223;34.854;-92.408;2023-04-04T03:32:55;99547.10;;;23.13;39.07
37710;BME280;60223;34.854;-92.408;2023-04-04T03:35:22;99555.28;;;23.10;39.09
37710;BME280;60223;34.854;-92.408;2023-04-04T03:37:47;99556.41;;;22.85;39.09
37710;BME280;60223;34.854;-92.408;2023-04-04T03:40:13;99554.79;;;22.60;39.10
37710;BME280;60223;34.854;-92.408;2023-04-04T03:42:37;99551.54;;;23.00;38.91
37710;BME280;60223;34.854;-92.408;2023-04-04T03:45:04;99551.08;;;22.71;38.97
37710;BME280;60223;34.854;-92.408;2023-04-04T03:47:29;99556.49;;;22.63;39.05
37710;BME280;60223;34.854;-92.408;2023-04-04T03:49:52;99554.70;;;22.62;39.00
37710;BME280;60223;34.854;-92.408;2023-04-04T03:52:19;99557.22;;;23.11;38.96
37710;BME280;60223;34.854;-92.408;2023-04-04T03:54:44;99554.76;;;22.61;38.92
37710;BME280;60223;34.854;-92.408;2023-04-04T03:57:10;99554.82;;;22.89;38.82
37710;BME280;60223;34.854;-92.408;2023-04-04T03:59:35;99564.20;;;22.86;38.81
37710;BME280;60223;34.854;-92.408;2023-04-04T04:02:01;99570.68;;;22.89;38.77
37710;BME280;60223;34.854;-92.408;2023-04-04T04:04:25;99571.89;;;22.88;38.76
37710;BME280;60223;34.854;-92.408;2023-04-04T04:06:51;99571.11;;;22.62;38.77
37710;BME280;60223;34.854;-92.408;2023-04-04T04:09:17;99573.48;;;22.67;38.74
37710;BME280;60223;34.854;-92.408;2023-04-04T04:11:42;99576.56;;;22.89;38.75
37710;BME280;60223;34.854;-92.408;2023-04-04T04:14:07;99563.47;;;22.66;38.74
37710;BME280;60223;34.854;-92.408;2023-04-04T04:16:32;99561.95;;;22.89;38.74
37710;BME280;60223;34.854;-92.408;2023-04-04T04:18:58;99561.97;;;22.70;38.69
37710;BME280;60223;34.854;-92.408;2023-04-04T04:21:21;99559.29;;;22.91;38.67
37710;BME280;60223;34.854;-92.408;2023-04-04T04:23:49;99558.62;;;22.96;38.62
37710;BME280;60223;34.854;-92.408;2023-04-04T04:26:15;99562.49;;;22.67;38.69
37710;BME280;60223;34.854;-92.408;2023-04-04T04:28:40;99562.78;;;22.65;38.70
37710;BME280;60223;34.854;-92.408;2023-04-04T04:31:07;99566.32;;;23.13;38.68
37710;BME280;60223;34.854;-92.408;2023-04-04T04:33:31;99571.29;;;22.91;38.66
37710;BME280;60223;34.854;-92.408;2023-04-04T04:35:58;99571.52;;;22.94;38.60
37710;BME280;60223;34.854;-92.408;2023-04-04T04:38:18;99572.15;;;22.68;38.60
37710;BME280;60223;34.854;-92.408;2023-04-04T04:40:44;99572.62;;;22.89;38.61
37710;BME280;60223;34.854;-92.408;2023-04-04T04:43:12;99567.76;;;22.65;38.61
37710;BME280;60223;34.854;-92.408;2023-04-04T04:45:39;99569.30;;;22.87;38.61
37710;BME280;60223;34.854;-92.408;2023-04-04T04:48:03;99571.16;;;22.92;38.51
37710;BME280;60223;34.854;-92.408;2023-04-04T04:50:29;99574.59;;;22.64;38.54
37710;BME280;60223;34.854;-92.408;2023-04-04T04:52:55;99572.34;;;22.91;38.45
37710;BME280;60223;34.854;-92.408;2023-04-04T04:55:20;99567.78;;;22.66;38.44
37710;BME280;60223;34.854;-92.408;2023-04-04T04:57:46;99564.56;;;22.94;38.36
37710;BME280;60223;34.854;-92.408;2023-04-04T05:00:11;99564.30;;;22.93;38.33
37710;BME280;60223;34.854;-92.408;2023-04-04T05:02:34;99570.10;;;22.67;38.36
37710;BME280;60223;34.854;-92.408;2023-04-04T05:05:02;99571.01;;;22.88;38.35
37710;BME280;60223;34.854;-92.408;2023-04-04T05:07:27;99571.78;;;23.16;38.30
37710;BME280;60223;34.854;-92.408;2023-04-04T05:09:52;99576.53;;;23.09;38.40
37710;BME280;60223;34.854;-92.408;2023-04-04T05:12:14;99579.99;;;22.88;38.37
37710;BME280;60223;34.854;-92.408;2023-04-04T05:14:43;99579.70;;;22.91;38.34
37710;BME280;60223;34.854;-92.408;2023-04-04T05:17:09;99582.27;;;22.86;38.43
37710;BME280;60223;34.854;-92.408;2023-04-04T05:19:34;99587.66;;;22.86;38.43
37710;BME280;60223;34.854;-92.408;2023-04-04T05:21:59;99585.25;;;22.59;38.46
37710;BME280;60223;34.854;-92.408;2023-04-04T05:24:24;99591.07;;;22.86;38.43
37710;BME280;60223;34.854;-92.408;2023-04-04T05:26:50;99591.68;;;22.88;38.40
37710;BME280;60223;34.854;-92.408;2023-04-04T05:29:16;99595.93;;;23.11;38.43
37710;BME280;60223;34.854;-92.408;2023-04-04T05:31:40;99600.55;;;22.82;38.49
37710;BME280;60223;34.854;-92.408;2023-04-04T05:34:05;99600.25;;;22.84;38.45
37710;BME280;60223;34.854;-92.408;2023-04-04T05:36:31;99601.47;;;23.07;38.47
37710;BME280;60223;34.854;-92.408;2023-04-04T05:38:56;99599.57;;;22.84;38.45
37710;BME280;60223;34.854;-92.408;2023-04-04T05:41:21;99603.21;;;22.59;38.44
37710;BME280;60223;34.854;-92.408;2023-04-04T05:43:47;99603.54;;;22.83;38.41
37710;BME280;60223;34.854;-92.408;2023-04-04T05:46:12;99605.14;;;22.83;38.38
37710;BME280;60223;34.854;-92.408;2023-04-04T05:48:38;99599.63;;;22.60;38.34
37710;BME280;60223;34.854;-92.408;2023-04-04T05:51:03;99608.83;;;22.80;38.36
37710;BME280;60223;34.854;-92.408;2023-04-04T05:53:28;99597.11;;;22.85;38.29
37710;BME280;60223;34.854;-92.408;2023-04-04T05:55:53;99597.24;;;23.06;38.29
37710;BME280;60223;34.854;-92.408;2023-04-04T05:58:19;99591.41;;;22.86;38.23
37710;BME280;60223;34.854;-92.408;2023-04-04T06:00:44;99593.96;;;22.79;38.29
37710;BME280;60223;34.854;-92.408;2023-04-04T06:03:11;99588.99;;;22.66;38.15
37710;BME280;60223;34.854;-92.408;2023-04-04T06:05:36;99592.01;;;22.57;38.26
37710;BME280;60223;34.854;-92.408;2023-04-04T06:08:01;99592.26;;;23.06;38.28
37710;BME280;60223;34.854;-92.408;2023-04-04T06:10:26;99591.36;;;22.79;38.34
37710;BME280;60223;34.854;-92.408;2023-04-04T06:12:53;99590.23;;;22.84;38.28
37710;BME280;60223;34.854;-92.408;2023-04-04T06:15:19;99585.01;;;22.54;38.37
37710;BME280;60223;34.854;-92.408;2023-04-04T06:17:44;99577.63;;;22.61;38.30
37710;BME280;60223;34.854;-92.408;2023-04-04T06:20:10;99570.11;;;22.81;38.34
37710;BME280;60223;34.854;-92.408;2023-04-04T06:22:34;99573.08;;;22.62;38.29
37710;BME280;60223;34.854;-92.408;2023-04-04T06:24:59;99574.02;;;22.66;38.24
37710;BME280;60223;34.854;-92.408;2023-04-04T06:27:24;99564.08;;;22.61;38.29
37710;BME280;60223;34.854;-92.408;2023-04-04T06:29:48;99571.26;;;23.14;38.23
37710;BME280;60223;34.854;-92.408;2023-04-04T06:32:16;99568.16;;;23.14;38.24
37710;BME280;60223;34.854;-92.408;2023-04-04T06:34:41;99564.18;;;22.64;38.28
37710;BME280;60223;34.854;-92.408;2023-04-04T06:37:06;99559.67;;;22.69;38.21
37710;BME280;60223;34.854;-92.408;2023-04-04T06:39:32;99563.99;;;22.63;38.27
37710;BME280;60223;34.854;-92.408;2023-04-04T06:41:57;99555.39;;;22.94;38.18
37710;BME280;60223;34.854;-92.408;2023-04-04T06:44:22;99569.82;;;22.87;38.27
37710;BME280;60223;34.854;-92.408;2023-04-04T06:46:49;99560.26;;;22.87;38.28
37710;BME280;60223;34.854;-92.408;2023-04-04T06:49:12;99572.15;;;22.68;38.20
37710;BME280;60223;34.854;-92.408;2023-04-04T06:51:39;99569.58;;;22.92;38.20
37710;BME280;60223;34.854;-92.408;2023-04-04T06:54:05;99567.94;;;22.88;38.21
37710;BME280;60223;34.854;-92.408;2023-04-04T06:56:30;99570.45;;;22.89;38.18
37710;BME280;60223;34.854;-92.408;2023-04-04T06:58:55;99564.00;;;22.92;38.13
37710;BME280;60223;34.854;-92.408;2023-04-04T07:01:21;99566.26;;;22.64;38.16
37710;BME280;60223;34.854;-92.408;2023-04-04T07:03:45;99573.46;;;22.87;38.15
37710;BME280;60223;34.854;-92.408;2023-04-04T07:06:12;99575.92;;;23.12;38.13
37710;BME280;60223;34.854;-92.408;2023-04-04T07:08:37;99572.22;;;23.14;38.11
37710;BME280;60223;34.854;-92.408;2023-04-04T07:11:03;99575.94;;;23.12;38.14
37710;BME280;60223;34.854;-92.408;2023-04-04T07:13:28;99579.68;;;22.91;38.13
37710;BME280;60223;34.854;-92.408;2023-04-04T07:15:54;99579.50;;;22.68;38.12
37710;BME280;60223;34.854;-92.408;2023-04-04T07:18:19;99574.14;;;22.93;38.13
37710;BME280;60223;34.854;-92.408;2023-04-04T07:20:45;99579.60;;;22.87;38.22
37710;BME280;60223;34.854;-92.408;2023-04-04T07:23:08;99574.54;;;22.63;38.22
37710;BME280;60223;34.854;-92.408;2023-04-04T07:25:36;99570.93;;;22.66;38.20
37710;BME280;60223;34.854;-92.408;2023-04-04T07:28:02;99576.34;;;22.65;38.22
37710;BME280;60223;34.854;-92.408;2023-04-04T07:30:28;99578.73;;;23.15;38.19
37710;BME280;60223;34.854;-92.408;2023-04-04T07:32:57;99568.29;;;22.64;38.23
37710;BME280;60223;34.854;-92.408;2023-04-04T07:35:18;99569.52;;;22.88;38.22
37710;BME280;60223;34.854;-92.408;2023-04-04T07:37:43;99555.95;;;22.94;38.16
37710;BME280;60223;34.854;-92.408;2023-04-04T07:40:10;99560.65;;;22.68;38.18
37710;BME280;60223;34.854;-92.408;2023-04-04T07:42:34;99560.14;;;22.90;38.22
37710;BME280;60223;34.854;-92.408;2023-04-04T07:44:59;99566.05;;;22.67;38.16
37710;BME280;60223;34.854;-92.408;2023-04-04T07:47:25;99561.46;;;22.94;38.11
37710;BME280;60223;34.854;-92.408;2023-04-04T07:49:51;99558.62;;;22.91;38.12
37710;BME280;60223;34.854;-92.408;2023-04-04T07:52:15;99568.02;;;22.63;38.18
37710;BME280;60223;34.854;-92.408;2023-04-04T07:54:42;99575.41;;;22.86;38.21
37710;BME280;60223;34.854;-92.408;2023-04-04T07:57:08;99571.02;;;23.13;38.13
37710;BME280;60223;34.854;-92.408;2023-04-04T07:59:33;99571.20;;;22.87;38.16
37710;BME280;60223;34.854;-92.408;2023-04-04T08:01:58;99569.35;;;23.20;38.05
37710;BME280;60223;34.854;-92.408;2023-04-04T08:04:24;99567.75;;;22.93;38.09
37710;BME280;60223;34.854;-92.408;2023-04-04T08:06:48;99567.33;;;22.66;38.16
37710;BME280;60223;34.854;-92.408;2023-04-04T08:09:14;99563.81;;;22.86;38.21
37710;BME280;60223;34.854;-92.408;2023-04-04T08:11:40;99562.85;;;22.94;38.13
37710;BME280;60223;34.854;-92.408;2023-04-04T08:14:06;99556.12;;;23.13;38.20
37710;BME280;60223;34.854;-92.408;2023-04-04T08:16:31;99550.17;;;22.68;38.17
37710;BME280;60223;34.854;-92.408;2023-04-04T08:18:56;99555.57;;;22.91;38.20
37710;BME280;60223;34.854;-92.408;2023-04-04T08:21:21;99554.31;;;22.67;38.19
37710;BME280;60223;34.854;-92.408;2023-04-04T08:23:47;99553.67;;;23.13;38.23
37710;BME280;60223;34.854;-92.408;2023-04-04T08:26:11;99553.40;;;22.75;38.12
37710;BME280;60223;34.854;-92.408;2023-04-04T08:28:38;99557.34;;;22.69;38.19
37710;BME280;60223;34.854;-92.408;2023-04-04T08:31:04;99553.76;;;22.66;38.23
37710;BME280;60223;34.854;-92.408;2023-04-04T08:33:29;99551.23;;;22.92;38.20
37710;BME280;60223;34.854;-92.408;2023-04-04T08:35:54;99546.41;;;22.65;38.23
37710;BME280;60223;34.854;-92.408;2023-04-04T08:38:19;99540.15;;;22.66;38.23
37710;BME280;60223;34.854;-92.408;2023-04-04T08:40:46;99541.63;;;22.84;38.32
37710;BME280;60223;34.854;-92.408;2023-04-04T08:43:11;99539.36;;;22.63;38.27
37710;BME280;60223;34.854;-92.408;2023-04-04T08:45:36;99536.47;;;22.86;38.27
37710;BME280;60223;34.854;-92.408;2023-04-04T08:48:01;99537.93;;;22.84;38.29
37710;BME280;60223;34.854;-92.408;2023-04-04T08:50:27;99539.07;;;23.10;38.26
37710;BME280;60223;34.854;-92.408;2023-04-04T08:52:52;99538.15;;;22.60;38.27
37710;BME280;60223;34.854;-92.408;2023-04-04T08:55:17;99539.98;;;23.06;38.27
37710;BME280;60223;34.854;-92.408;2023-04-04T08:57:43;99542.06;;;22.56;38.32
37710;BME280;60223;34.854;-92.408;2023-04-04T09:00:08;99535.88;;;22.81;38.31
37710;BME280;60223;34.854;-92.408;2023-04-04T09:02:36;99534.16;;;22.55;38.32
37710;BME280;60223;34.854;-92.408;2023-04-04T09:04:59;99542.06;;;22.78;38.34
37710;BME280;60223;34.854;-92.408;2023-04-04T09:07:24;99542.44;;;23.03;38.33
37710;BME280;60223;34.854;-92.408;2023-04-04T09:09:49;99532.95;;;22.78;38.36
37710;BME280;60223;34.854;-92.408;2023-04-04T09:12:16;99532.59;;;22.78;38.35
37710;BME280;60223;34.854;-92.408;2023-04-04T09:14:41;99537.12;;;22.81;38.29
37710;BME280;60223;34.854;-92.408;2023-04-04T09:17:05;99539.91;;;22.79;38.34
37710;BME280;60223;34.854;-92.408;2023-04-04T09:19:30;99547.10;;;22.55;38.34
37710;BME280;60223;34.854;-92.408;2023-04-04T09:21:56;99549.84;;;22.77;38.39
37710;BME280;60223;34.854;-92.408;2023-04-04T09:24:20;99541.33;;;22.78;38.36
37710;BME280;60223;34.854;-92.408;2023-04-04T09:26:52;99542.14;;;22.55;38.35
37710;BME280;60223;34.854;-92.408;2023-04-04T09:29:12;99540.86;;;22.57;38.32
37710;BME280;60223;34.854;-92.408;2023-04-04T09:31:38;99548.00;;;22.82;38.29
37710;BME280;60223;34.854;-92.408;2023-04-04T09:34:03;99545.35;;;22.80;38.31
37710;BME280;60223;34.854;-92.408;2023-04-04T09:36:28;99545.39;;;23.02;38.34
37710;BME280;60223;34.854;-92.408;2023-04-04T09:38:56;99549.71;;;22.79;38.32
37710;BME280;60223;34.854;-92.408;2023-04-04T09:41:19;99551.80;;;22.55;38.31
37710;BME280;60223;34.854;-92.408;2023-04-04T09:43:44;99545.20;;;22.80;38.31
37710;BME280;60223;34.854;-92.408;2023-04-04T09:46:09;99544.92;;;22.56;38.31
37710;BME280;60223;34.854;-92.408;2023-04-04T09:48:35;99552.50;;;22.77;38.34
37710;BME280;60223;34.854;-92.408;2023-04-04T09:50:59;99554.23;;;22.57;38.29
37710;BME280;60223;34.854;-92.408;2023-04-04T09:53:24;99549.86;;;22.82;38.23
37710;BME280;60223;34.854;-92.408;2023-04-04T09:55:54;99563.01;;;22.77;38.31
37710;BME280;60223;34.854;-92.408;2023-04-04T09:58:17;99563.65;;;23.01;38.31
37710;BME280;60223;34.854;-92.408;2023-04-04T10:00:45;99556.40;;;22.80;38.24
37710;BME280;60223;34.854;-92.408;2023-04-04T10:03:05;99560.98;;;22.77;38.29
37710;BME280;60223;34.854;-92.408;2023-04-04T10:05:31;99555.56;;;22.80;38.25
37710;BME280;60223;34.854;-92.408;2023-04-04T10:07:56;99554.65;;;22.52;38.31
37710;BME280;60223;34.854;-92.408;2023-04-04T10:10:20;99565.57;;;22.79;38.24
37710;BME280;60223;34.854;-92.408;2023-04-04T10:12:48;99573.03;;;22.77;38.29
37710;BME280;60223;34.854;-92.408;2023-04-04T10:15:14;99582.89;;;22.80;38.26
37710;BME280;60223;34.854;-92.408;2023-04-04T10:17:40;99582.63;;;22.75;38.31
37710;BME280;60223;34.854;-92.408;2023-04-04T10:20:07;99584.81;;;22.55;38.29
37710;BME280;60223;34.854;-92.408;2023-04-04T10:22:30;99588.25;;;22.55;38.26
37710;BME280;60223;34.854;-92.408;2023-04-04T10:24:55;99593.69;;;23.03;38.26
37710;BME280;60223;34.854;-92.408;2023-04-04T10:27:20;99600.09;;;22.53;38.28
37710;BME280;60223;34.854;-92.408;2023-04-04T10:29:45;99607.73;;;22.81;38.23
37710;BME280;60223;34.854;-92.408;2023-04-04T10:32:13;99602.52;;;22.75;38.29
37710;BME280;60223;34.854;-92.408;2023-04-04T10:34:41;99601.44;;;22.99;38.29
37710;BME280;60223;34.854;-92.408;2023-04-04T10:37:11;99607.20;;;22.78;38.25
37710;BME280;60223;34.854;-92.408;2023-04-04T10:39:31;99612.40;;;22.52;38.27
37710;BME280;60223;34.854;-92.408;2023-04-04T10:41:54;99601.01;;;22.79;38.22
37710;BME280;60223;34.854;-92.408;2023-04-04T10:44:26;99600.31;;;23.00;38.26
37710;BME280;60223;34.854;-92.408;2023-04-04T10:46:46;99597.70;;;22.79;38.23
37710;BME280;60223;34.854;-92.408;2023-04-04T10:49:10;99595.51;;;22.94;38.34
37710;BME280;60223;34.854;-92.408;2023-04-04T10:51:35;99582.93;;;22.74;38.27
37710;BME280;60223;34.854;-92.408;2023-04-04T10:54:00;99583.51;;;22.72;38.29
37710;BME280;60223;34.854;-92.408;2023-04-04T10:56:26;99581.15;;;22.71;38.30
37710;BME280;60223;34.854;-92.408;2023-04-04T11:01:17;99587.60;;;22.94;38.31
37710;BME280;60223;34.854;-92.408;2023-04-04T11:06:13;99598.09;;;22.79;38.18
37710;BME280;60223;34.854;-92.408;2023-04-04T11:08:34;99592.09;;;22.48;38.27
37710;BME280;60223;34.854;-92.408;2023-04-04T11:10:58;99596.04;;;22.98;38.26
37710;BME280;60223;34.854;-92.408;2023-04-04T11:13:30;99598.67;;;22.49;38.28
37710;BME280;60223;34.854;-92.408;2023-04-04T11:15:52;99609.90;;;22.77;38.21
37710;BME280;60223;34.854;-92.408;2023-04-04T11:18:16;99611.72;;;22.77;38.22
37710;BME280;60223;34.854;-92.408;2023-04-04T11:20:41;99613.57;;;22.97;38.25
37710;BME280;60223;34.854;-92.408;2023-04-04T11:23:08;99594.89;;;22.53;38.19
37710;BME280;60223;34.854;-92.408;2023-04-04T11:25:34;99610.05;;;22.52;38.22
37710;BME280;60223;34.854;-92.408;2023-04-04T11:27:57;99625.38;;;22.52;38.22
37710;BME280;60223;34.854;-92.408;2023-04-04T11:30:20;99623.16;;;22.77;38.19
37710;BME280;60223;34.854;-92.408;2023-04-04T11:32:51;99627.82;;;22.76;38.21
37710;BME280;60223;34.854;-92.408;2023-04-04T11:35:14;99637.20;;;22.53;38.21
37710;BME280;60223;34.854;-92.408;2023-04-04T11:37:43;99639.41;;;22.99;38.20
37710;BME280;60223;34.854;-92.408;2023-04-04T11:40:09;99641.25;;;22.74;38.20
37710;BME280;60223;34.854;-92.408;2023-04-04T11:42:34;99638.49;;;22.50;38.20
37710;BME280;60223;34.854;-92.408;2023-04-04T11:45:05;99641.69;;;22.98;38.21
37710;BME280;60223;34.854;-92.408;2023-04-04T11:47:22;99640.08;;;22.87;38.05
37710;BME280;60223;34.854;-92.408;2023-04-04T11:49:46;99643.61;;;22.76;38.21
37710;BME280;60223;34.854;-92.408;2023-04-04T11:52:11;99650.68;;;22.77;38.21
37710;BME280;60223;34.854;-92.408;2023-04-04T11:54:37;99659.19;;;22.96;38.27
37710;BME280;60223;34.854;-92.408;2023-04-04T11:57:02;99652.53;;;22.55;38.21
37710;BME280;60223;34.854;-92.408;2023-04-04T11:59:27;99653.75;;;22.78;38.20
37710;BME280;60223;34.854;-92.408;2023-04-04T12:01:53;99655.91;;;22.51;38.23
37710;BME280;60223;34.854;-92.408;2023-04-04T12:04:20;99665.12;;;22.95;38.27
37710;BME280;60223;34.854;-92.408;2023-04-04T12:06:46;99662.67;;;22.72;38.25
37710;BME280;60223;34.854;-92.408;2023-04-04T12:09:09;99670.61;;;22.98;38.23
37710;BME280;60223;34.854;-92.408;2023-04-04T12:16:25;99675.58;;;22.71;38.31
37710;BME280;60223;34.854;-92.408;2023-04-04T12:18:52;99677.93;;;22.50;38.24
37710;BME280;60223;34.854;-92.408;2023-04-04T12:21:16;99675.16;;;22.52;38.20
37710;BME280;60223;34.854;-92.408;2023-04-04T12:23:41;99678.91;;;22.74;38.24
37710;BME280;60223;34.854;-92.408;2023-04-04T12:26:05;99678.68;;;22.69;38.28
37710;BME280;60223;34.854;-92.408;2023-04-04T12:28:32;99664.10;;;22.73;38.29
37710;BME280;60223;34.854;-92.408;2023-04-04T12:30:57;99670.09;;;22.95;38.35
37710;BME280;60223;34.854;-92.408;2023-04-04T12:33:22;99666.82;;;22.72;38.33
37710;BME280;60223;34.854;-92.408;2023-04-04T12:35:52;99672.84;;;22.73;38.37
37710;BME280;60223;34.854;-92.408;2023-04-04T12:38:14;99671.48;;;22.85;38.31
37710;BME280;60223;34.854;-92.408;2023-04-04T12:40:41;99679.71;;;23.03;38.46
37710;BME280;60223;34.854;-92.408;2023-04-04T12:43:04;99676.64;;;22.73;38.53